sensor_id;sensor_type;location;lat;lon;timestamp;temperature;humidity
1526;DHT22;756;49.982;8.240;2022-08-25T00:01:43;23.10;53.10
1526;DHT22;756;49.982;8.240;2022-08-25T00:04:14;23.00;53.70
1526;DHT22;756;49.982;8.240;2022-08-25T00:06:44;23.00;53.70
1526;DHT22;756;49.982;8.240;2022-08-25T00:09:14;22.90;53.50
1526;DHT22;756;49.982;8.240;2022-08-25T00:11:42;22.90;53.80
1526;DHT22;756;49.982;8.240;2022-08-25T00:14:12;22.90;54.00
1526;DHT22;756;49.982;8.240;2022-08-25T00:16:39;22.90;53.80
1526;DHT22;756;49.982;8.240;2022-08-25T00:19:11;22.90;53.80
1526;DHT22;756;49.982;8.240;2022-08-25T00:21:40;22.80;53.90
1526;DHT22;756;49.982;8.240;2022-08-25T00:24:09;22.80;53.80
1526;DHT22;756;49.982;8.240;2022-08-25T00:26:41;22.80;53.90
1526;DHT22;756;49.982;8.240;2022-08-25T00:29:10;22.80;53.60
1526;DHT22;756;49.982;8.240;2022-08-25T00:31:38;22.80;53.70
1526;DHT22;756;49.982;8.240;2022-08-25T00:34:07;22.80;53.90
1526;DHT22;756;49.982;8.240;2022-08-25T00:36:34;22.80;54.10
1526;DHT22;756;49.982;8.240;2022-08-25T00:39:02;22.70;54.10
1526;DHT22;756;49.982;8.240;2022-08-25T00:41:29;22.70;54.20
1526;DHT22;756;49.982;8.240;2022-08-25T00:43:58;22.60;54.40
1526;DHT22;756;49.982;8.240;2022-08-25T00:46:30;22.60;54.70
1526;DHT22;756;49.982;8.240;2022-08-25T00:49:07;22.60;55.00
1526;DHT22;756;49.982;8.240;2022-08-25T00:51:45;22.60;55.10
1526;DHT22;756;49.982;8.240;2022-08-25T00:54:17;22.60;55.00
1526;DHT22;756;49.982;8.240;2022-08-25T00:56:44;22.50;55.10
1526;DHT22;756;49.982;8.240;2022-08-25T00:59:13;22.50;54.90
1526;DHT22;756;49.982;8.240;2022-08-25T01:01:40;22.50;54.70
1526;DHT22;756;49.982;8.240;2022-08-25T01:04:07;22.50;54.80
1526;DHT22;756;49.982;8.240;2022-08-25T01:06:36;22.50;55.00
1526;DHT22;756;49.982;8.240;2022-08-25T01:09:05;22.50;55.20
1526;DHT22;756;49.982;8.240;2022-08-25T01:11:34;22.50;55.30
1526;DHT22;756;49.982;8.240;2022-08-25T01:14:01;22.50;55.50
1526;DHT22;756;49.982;8.240;2022-08-25T01:16:34;22.40;55.70
1526;DHT22;756;49.982;8.240;2022-08-25T01:19:03;22.40;55.90
1526;DHT22;756;49.982;8.240;2022-08-25T01:21:37;22.40;56.20
1526;DHT22;756;49.982;8.240;2022-08-25T01:24:05;22.40;56.40
1526;DHT22;756;49.982;8.240;2022-08-25T01:26:34;22.40;56.50
1526;DHT22;756;49.982;8.240;2022-08-25T01:29:04;22.40;56.10
1526;DHT22;756;49.982;8.240;2022-08-25T01:31:56;22.40;55.50
1526;DHT22;756;49.982;8.240;2022-08-25T01:34:26;22.40;55.50
1526;DHT22;756;49.982;8.240;2022-08-25T01:36:54;22.40;55.30
1526;DHT22;756;49.982;8.240;2022-08-25T01:39:22;22.30;55.90
1526;DHT22;756;49.982;8.240;2022-08-25T01:44:52;22.30;56.10
1526;DHT22;756;49.982;8.240;2022-08-25T01:47:20;22.30;55.90
1526;DHT22;756;49.982;8.240;2022-08-25T01:49:46;22.30;55.50
1526;DHT22;756;49.982;8.240;2022-08-25T01:52:20;22.20;55.50
1526;DHT22;756;49.982;8.240;2022-08-25T01:54:49;22.20;55.50
1526;DHT22;756;49.982;8.240;2022-08-25T01:57:16;22.10;55.70
1526;DHT22;756;49.982;8.240;2022-08-25T01:59:42;22.10;56.00
1526;DHT22;756;49.982;8.240;2022-08-25T02:02:10;22.00;56.40
1526;DHT22;756;49.982;8.240;2022-08-25T02:04:37;22.00;56.30
1526;DHT22;756;49.982;8.240;2022-08-25T02:07:07;22.00;56.40
1526;DHT22;756;49.982;8.240;2022-08-25T02:09:36;22.10;56.30
1526;DHT22;756;49.982;8.240;2022-08-25T02:12:03;22.10;55.80
1526;DHT22;756;49.982;8.240;2022-08-25T02:14:30;22.10;55.80
1526;DHT22;756;49.982;8.240;2022-08-25T02:16:57;22.10;55.60
1526;DHT22;756;49.982;8.240;2022-08-25T02:19:25;22.00;55.80
1526;DHT22;756;49.982;8.240;2022-08-25T02:21:52;22.00;55.70
1526;DHT22;756;49.982;8.240;2022-08-25T02:24:19;22.00;55.80
1526;DHT22;756;49.982;8.240;2022-08-25T02:26:46;22.00;55.60
1526;DHT22;756;49.982;8.240;2022-08-25T02:29:13;22.00;56.00
1526;DHT22;756;49.982;8.240;2022-08-25T02:31:40;21.90;56.30
1526;DHT22;756;49.982;8.240;2022-08-25T02:34:08;21.90;56.50
1526;DHT22;756;49.982;8.240;2022-08-25T02:36:36;21.80;56.80
1526;DHT22;756;49.982;8.240;2022-08-25T02:39:05;21.70;57.00
1526;DHT22;756;49.982;8.240;2022-08-25T02:41:33;21.60;57.30
1526;DHT22;756;49.982;8.240;2022-08-25T02:44:01;21.60;57.40
1526;DHT22;756;49.982;8.240;2022-08-25T02:46:29;21.60;57.90
1526;DHT22;756;49.982;8.240;2022-08-25T02:48:57;21.50;58.00
1526;DHT22;756;49.982;8.240;2022-08-25T02:51:24;21.50;58.20
1526;DHT22;756;49.982;8.240;2022-08-25T02:53:53;21.40;58.50
1526;DHT22;756;49.982;8.240;2022-08-25T02:56:22;21.50;58.20
1526;DHT22;756;49.982;8.240;2022-08-25T02:58:50;21.50;58.30
1526;DHT22;756;49.982;8.240;2022-08-25T03:01:16;21.50;58.50
1526;DHT22;756;49.982;8.240;2022-08-25T03:03:45;21.50;58.70
1526;DHT22;756;49.982;8.240;2022-08-25T03:06:14;21.40;59.10
1526;DHT22;756;49.982;8.240;2022-08-25T03:08:42;21.40;59.40
1526;DHT22;756;49.982;8.240;2022-08-25T03:11:09;21.40;59.60
1526;DHT22;756;49.982;8.240;2022-08-25T03:13:36;21.40;59.40
1526;DHT22;756;49.982;8.240;2022-08-25T03:16:05;21.40;59.40
1526;DHT22;756;49.982;8.240;2022-08-25T03:18:39;21.40;59.40
1526;DHT22;756;49.982;8.240;2022-08-25T03:21:08;21.40;59.70
1526;DHT22;756;49.982;8.240;2022-08-25T03:23:37;21.40;59.90
1526;DHT22;756;49.982;8.240;2022-08-25T03:26:04;21.30;60.10
1526;DHT22;756;49.982;8.240;2022-08-25T03:28:49;21.30;60.20
1526;DHT22;756;49.982;8.240;2022-08-25T03:31:16;21.30;60.50
1526;DHT22;756;49.982;8.240;2022-08-25T03:33:44;21.20;60.80
1526;DHT22;756;49.982;8.240;2022-08-25T03:36:11;21.20;60.90
1526;DHT22;756;49.982;8.240;2022-08-25T03:38:38;21.10;61.30
1526;DHT22;756;49.982;8.240;2022-08-25T03:41:13;21.10;61.50
1526;DHT22;756;49.982;8.240;2022-08-25T03:43:40;21.10;61.50
1526;DHT22;756;49.982;8.240;2022-08-25T03:46:07;21.10;61.60
1526;DHT22;756;49.982;8.240;2022-08-25T03:48:34;21.10;61.90
1526;DHT22;756;49.982;8.240;2022-08-25T03:51:01;21.10;61.80
1526;DHT22;756;49.982;8.240;2022-08-25T03:53:27;21.10;61.70
1526;DHT22;756;49.982;8.240;2022-08-25T03:55:54;21.20;61.50
1526;DHT22;756;49.982;8.240;2022-08-25T03:58:21;21.10;61.60
1526;DHT22;756;49.982;8.240;2022-08-25T04:00:48;21.10;61.70
1526;DHT22;756;49.982;8.240;2022-08-25T04:03:14;21.10;61.80
1526;DHT22;756;49.982;8.240;2022-08-25T04:05:42;21.10;61.80
1526;DHT22;756;49.982;8.240;2022-08-25T04:08:10;21.10;62.10
1526;DHT22;756;49.982;8.240;2022-08-25T04:10:37;21.10;62.10
1526;DHT22;756;49.982;8.240;2022-08-25T04:13:04;21.00;62.50
1526;DHT22;756;49.982;8.240;2022-08-25T04:15:31;21.00;62.70
1526;DHT22;756;49.982;8.240;2022-08-25T04:17:57;21.00;62.70
1526;DHT22;756;49.982;8.240;2022-08-25T04:20:25;21.00;62.90
1526;DHT22;756;49.982;8.240;2022-08-25T04:22:52;21.00;62.90
1526;DHT22;756;49.982;8.240;2022-08-25T04:25:18;21.00;63.00
1526;DHT22;756;49.982;8.240;2022-08-25T04:27:45;20.90;63.40
1526;DHT22;756;49.982;8.240;2022-08-25T04:30:12;20.90;63.70
1526;DHT22;756;49.982;8.240;2022-08-25T04:32:40;20.80;63.90
1526;DHT22;756;49.982;8.240;2022-08-25T04:35:07;20.80;64.10
1526;DHT22;756;49.982;8.240;2022-08-25T04:37:34;20.80;64.10
1526;DHT22;756;49.982;8.240;2022-08-25T04:40:01;20.80;64.10
1526;DHT22;756;49.982;8.240;2022-08-25T04:42:28;20.80;64.30
1526;DHT22;756;49.982;8.240;2022-08-25T04:44:55;20.90;64.40
1526;DHT22;756;49.982;8.240;2022-08-25T04:47:22;20.90;64.40
1526;DHT22;756;49.982;8.240;2022-08-25T04:49:49;20.90;64.30
1526;DHT22;756;49.982;8.240;2022-08-25T04:52:16;20.90;64.70
1526;DHT22;756;49.982;8.240;2022-08-25T04:54:42;20.80;64.90
1526;DHT22;756;49.982;8.240;2022-08-25T04:57:10;20.80;65.10
1526;DHT22;756;49.982;8.240;2022-08-25T04:59:37;20.80;65.10
1526;DHT22;756;49.982;8.240;2022-08-25T05:02:05;20.80;65.10
1526;DHT22;756;49.982;8.240;2022-08-25T05:04:34;20.80;65.40
1526;DHT22;756;49.982;8.240;2022-08-25T05:07:01;20.80;65.40
1526;DHT22;756;49.982;8.240;2022-08-25T05:09:28;20.80;65.20
1526;DHT22;756;49.982;8.240;2022-08-25T05:12:01;20.90;65.10
1526;DHT22;756;49.982;8.240;2022-08-25T05:14:30;20.90;65.20
1526;DHT22;756;49.982;8.240;2022-08-25T05:16:57;20.90;65.40
1526;DHT22;756;49.982;8.240;2022-08-25T05:19:24;20.90;65.40
1526;DHT22;756;49.982;8.240;2022-08-25T05:21:52;20.90;65.60
1526;DHT22;756;49.982;8.240;2022-08-25T05:24:19;21.00;65.40
1526;DHT22;756;49.982;8.240;2022-08-25T05:26:47;21.00;65.20
1526;DHT22;756;49.982;8.240;2022-08-25T05:29:13;21.00;65.20
1526;DHT22;756;49.982;8.240;2022-08-25T05:31:41;21.10;65.40
1526;DHT22;756;49.982;8.240;2022-08-25T05:34:16;21.10;65.20
1526;DHT22;756;49.982;8.240;2022-08-25T05:36:44;21.20;65.10
1526;DHT22;756;49.982;8.240;2022-08-25T05:39:11;21.30;65.10
1526;DHT22;756;49.982;8.240;2022-08-25T05:41:38;21.30;65.20
1526;DHT22;756;49.982;8.240;2022-08-25T05:44:05;21.30;65.30
1526;DHT22;756;49.982;8.240;2022-08-25T05:46:32;21.30;65.30
1526;DHT22;756;49.982;8.240;2022-08-25T05:48:58;21.40;65.40
1526;DHT22;756;49.982;8.240;2022-08-25T05:51:25;21.50;65.40
1526;DHT22;756;49.982;8.240;2022-08-25T05:53:52;21.50;65.60
1526;DHT22;756;49.982;8.240;2022-08-25T05:56:19;21.60;65.80
1526;DHT22;756;49.982;8.240;2022-08-25T05:58:46;21.60;66.00
1526;DHT22;756;49.982;8.240;2022-08-25T06:01:28;21.70;66.00
1526;DHT22;756;49.982;8.240;2022-08-25T06:04:16;21.80;66.10
1526;DHT22;756;49.982;8.240;2022-08-25T06:06:47;21.90;66.30
1526;DHT22;756;49.982;8.240;2022-08-25T06:09:16;21.90;66.00
1526;DHT22;756;49.982;8.240;2022-08-25T06:11:42;22.00;65.90
1526;DHT22;756;49.982;8.240;2022-08-25T06:14:10;22.10;66.00
1526;DHT22;756;49.982;8.240;2022-08-25T06:16:37;22.20;66.20
1526;DHT22;756;49.982;8.240;2022-08-25T06:19:06;22.20;66.10
1526;DHT22;756;49.982;8.240;2022-08-25T06:21:33;22.30;66.00
1526;DHT22;756;49.982;8.240;2022-08-25T06:24:00;22.40;65.90
1526;DHT22;756;49.982;8.240;2022-08-25T06:26:27;22.40;65.90
1526;DHT22;756;49.982;8.240;2022-08-25T06:28:54;22.50;65.80
1526;DHT22;756;49.982;8.240;2022-08-25T06:31:20;22.70;65.70
1526;DHT22;756;49.982;8.240;2022-08-25T06:33:48;22.70;65.60
1526;DHT22;756;49.982;8.240;2022-08-25T06:36:15;22.80;65.40
1526;DHT22;756;49.982;8.240;2022-08-25T06:38:42;22.90;65.20
1526;DHT22;756;49.982;8.240;2022-08-25T06:41:09;23.00;65.00
1526;DHT22;756;49.982;8.240;2022-08-25T06:43:36;23.10;65.00
1526;DHT22;756;49.982;8.240;2022-08-25T06:46:14;23.20;65.00
1526;DHT22;756;49.982;8.240;2022-08-25T06:48:42;23.30;64.80
1526;DHT22;756;49.982;8.240;2022-08-25T06:51:11;23.40;64.60
1526;DHT22;756;49.982;8.240;2022-08-25T06:53:40;23.30;65.00
1526;DHT22;756;49.982;8.240;2022-08-25T06:56:07;23.40;64.90
1526;DHT22;756;49.982;8.240;2022-08-25T06:58:35;23.50;64.60
1526;DHT22;756;49.982;8.240;2022-08-25T07:01:19;23.50;64.50
1526;DHT22;756;49.982;8.240;2022-08-25T07:03:54;23.70;64.30
1526;DHT22;756;49.982;8.240;2022-08-25T07:06:23;23.70;64.20
1526;DHT22;756;49.982;8.240;2022-08-25T07:08:51;23.70;64.10
1526;DHT22;756;49.982;8.240;2022-08-25T07:11:18;23.80;64.00
1526;DHT22;756;49.982;8.240;2022-08-25T07:13:47;23.90;63.70
1526;DHT22;756;49.982;8.240;2022-08-25T07:16:14;24.00;63.40
1526;DHT22;756;49.982;8.240;2022-08-25T07:18:42;24.10;63.20
1526;DHT22;756;49.982;8.240;2022-08-25T07:21:10;24.20;63.00
1526;DHT22;756;49.982;8.240;2022-08-25T07:23:38;24.20;62.80
1526;DHT22;756;49.982;8.240;2022-08-25T07:26:32;24.30;62.40
1526;DHT22;756;49.982;8.240;2022-08-25T07:29:12;24.50;62.20
1526;DHT22;756;49.982;8.240;2022-08-25T07:31:39;24.60;62.10
1526;DHT22;756;49.982;8.240;2022-08-25T07:34:07;24.60;62.10
1526;DHT22;756;49.982;8.240;2022-08-25T07:36:54;24.70;61.80
1526;DHT22;756;49.982;8.240;2022-08-25T07:39:23;24.80;61.60
1526;DHT22;756;49.982;8.240;2022-08-25T07:41:50;24.90;61.60
1526;DHT22;756;49.982;8.240;2022-08-25T07:44:19;24.80;61.80
1526;DHT22;756;49.982;8.240;2022-08-25T07:46:46;24.90;61.70
1526;DHT22;756;49.982;8.240;2022-08-25T07:49:16;25.00;61.60
1526;DHT22;756;49.982;8.240;2022-08-25T07:51:49;25.10;61.20
1526;DHT22;756;49.982;8.240;2022-08-25T07:54:30;25.20;60.80
1526;DHT22;756;49.982;8.240;2022-08-25T07:57:04;25.30;60.80
1526;DHT22;756;49.982;8.240;2022-08-25T07:59:31;25.30;60.60
1526;DHT22;756;49.982;8.240;2022-08-25T08:02:10;25.50;60.40
1526;DHT22;756;49.982;8.240;2022-08-25T08:04:46;25.50;60.20
1526;DHT22;756;49.982;8.240;2022-08-25T08:07:22;25.70;59.80
1526;DHT22;756;49.982;8.240;2022-08-25T08:09:51;25.80;59.60
1526;DHT22;756;49.982;8.240;2022-08-25T08:12:38;25.90;59.40
1526;DHT22;756;49.982;8.240;2022-08-25T08:15:06;26.00;59.00
1526;DHT22;756;49.982;8.240;2022-08-25T08:17:38;26.10;58.50
1526;DHT22;756;49.982;8.240;2022-08-25T08:20:07;26.20;58.30
1526;DHT22;756;49.982;8.240;2022-08-25T08:22:36;26.40;58.00
1526;DHT22;756;49.982;8.240;2022-08-25T08:25:05;26.50;57.70
1526;DHT22;756;49.982;8.240;2022-08-25T08:27:36;26.60;57.50
1526;DHT22;756;49.982;8.240;2022-08-25T08:30:04;26.70;57.30
1526;DHT22;756;49.982;8.240;2022-08-25T08:32:31;26.80;56.70
1526;DHT22;756;49.982;8.240;2022-08-25T08:35:17;26.90;56.50
1526;DHT22;756;49.982;8.240;2022-08-25T08:37:44;27.00;56.30
1526;DHT22;756;49.982;8.240;2022-08-25T08:40:14;27.10;55.60
1526;DHT22;756;49.982;8.240;2022-08-25T08:48:21;27.30;54.40
1526;DHT22;756;49.982;8.240;2022-08-25T08:50:57;27.40;54.50
1526;DHT22;756;49.982;8.240;2022-08-25T08:53:44;27.50;54.20
1526;DHT22;756;49.982;8.240;2022-08-25T08:56:22;27.60;53.90
1526;DHT22;756;49.982;8.240;2022-08-25T08:58:53;27.60;53.60
1526;DHT22;756;49.982;8.240;2022-08-25T09:01:25;27.70;53.40
1526;DHT22;756;49.982;8.240;2022-08-25T09:03:59;27.80;53.30
1526;DHT22;756;49.982;8.240;2022-08-25T09:06:35;27.90;53.20
1526;DHT22;756;49.982;8.240;2022-08-25T09:09:04;28.00;53.20
1526;DHT22;756;49.982;8.240;2022-08-25T09:11:58;28.10;53.10
1526;DHT22;756;49.982;8.240;2022-08-25T09:20:36;28.40;52.40
1526;DHT22;756;49.982;8.240;2022-08-25T09:28:47;28.30;51.50
1526;DHT22;756;49.982;8.240;2022-08-25T09:31:22;28.40;51.80
1526;DHT22;756;49.982;8.240;2022-08-25T09:33:56;28.40;51.30
1526;DHT22;756;49.982;8.240;2022-08-25T09:36:25;28.40;51.00
1526;DHT22;756;49.982;8.240;2022-08-25T09:38:52;28.30;51.20
1526;DHT22;756;49.982;8.240;2022-08-25T09:47:04;28.60;50.80
1526;DHT22;756;49.982;8.240;2022-08-25T09:49:39;28.70;50.50
1526;DHT22;756;49.982;8.240;2022-08-25T09:54:52;28.80;50.10
1526;DHT22;756;49.982;8.240;2022-08-25T10:00:16;29.10;49.80
1526;DHT22;756;49.982;8.240;2022-08-25T10:02:59;29.20;49.10
1526;DHT22;756;49.982;8.240;2022-08-25T10:05:33;29.40;49.20
1526;DHT22;756;49.982;8.240;2022-08-25T10:08:09;29.40;48.20
1526;DHT22;756;49.982;8.240;2022-08-25T10:10:44;29.50;48.50
1526;DHT22;756;49.982;8.240;2022-08-25T10:13:14;29.50;47.40
1526;DHT22;756;49.982;8.240;2022-08-25T10:16:24;29.70;47.20
1526;DHT22;756;49.982;8.240;2022-08-25T10:19:12;29.90;47.10
1526;DHT22;756;49.982;8.240;2022-08-25T10:21:41;30.10;46.60
1526;DHT22;756;49.982;8.240;2022-08-25T10:24:17;30.20;46.40
1526;DHT22;756;49.982;8.240;2022-08-25T10:34:47;30.20;46.20
1526;DHT22;756;49.982;8.240;2022-08-25T10:40:13;30.00;46.20
1526;DHT22;756;49.982;8.240;2022-08-25T10:46:03;30.10;46.60
1526;DHT22;756;49.982;8.240;2022-08-25T10:57:21;30.40;45.90
1526;DHT22;756;49.982;8.240;2022-08-25T11:02:57;30.10;45.00
1526;DHT22;756;49.982;8.240;2022-08-25T11:10:54;29.80;46.10
1526;DHT22;756;49.982;8.240;2022-08-25T11:13:45;29.80;46.50
1526;DHT22;756;49.982;8.240;2022-08-25T11:16:13;29.80;46.30
1526;DHT22;756;49.982;8.240;2022-08-25T11:24:35;29.60;45.60
1526;DHT22;756;49.982;8.240;2022-08-25T11:27:17;29.40;45.60
1526;DHT22;756;49.982;8.240;2022-08-25T11:30:00;29.40;46.30
1526;DHT22;756;49.982;8.240;2022-08-25T11:32:32;29.40;46.30
1526;DHT22;756;49.982;8.240;2022-08-25T11:35:04;29.40;46.40
1526;DHT22;756;49.982;8.240;2022-08-25T11:37:33;29.40;46.50
1526;DHT22;756;49.982;8.240;2022-08-25T11:53:33;29.30;47.00
1526;DHT22;756;49.982;8.240;2022-08-25T11:56:29;29.30;47.20
1526;DHT22;756;49.982;8.240;2022-08-25T11:58:58;29.20;46.70
1526;DHT22;756;49.982;8.240;2022-08-25T12:09:33;29.20;47.40
1526;DHT22;756;49.982;8.240;2022-08-25T12:14:52;29.20;47.40
1526;DHT22;756;49.982;8.240;2022-08-25T12:17:23;29.10;47.20
1526;DHT22;756;49.982;8.240;2022-08-25T12:19:57;29.10;47.40
1526;DHT22;756;49.982;8.240;2022-08-25T12:25:26;29.10;47.40
1526;DHT22;756;49.982;8.240;2022-08-25T12:30:46;29.20;47.70
1526;DHT22;756;49.982;8.240;2022-08-25T12:33:22;29.20;47.40
1526;DHT22;756;49.982;8.240;2022-08-25T12:36:00;29.10;47.20
1526;DHT22;756;49.982;8.240;2022-08-25T12:38:35;29.10;47.10
1526;DHT22;756;49.982;8.240;2022-08-25T12:41:32;29.10;47.10
1526;DHT22;756;49.982;8.240;2022-08-25T12:44:32;29.10;47.20
1526;DHT22;756;49.982;8.240;2022-08-25T12:49:49;29.00;47.30
1526;DHT22;756;49.982;8.240;2022-08-25T12:52:19;29.10;47.40
1526;DHT22;756;49.982;8.240;2022-08-25T12:54:56;29.10;47.20
1526;DHT22;756;49.982;8.240;2022-08-25T13:03:20;29.20;47.20
1526;DHT22;756;49.982;8.240;2022-08-25T13:06:17;29.20;47.20
1526;DHT22;756;49.982;8.240;2022-08-25T13:08:52;29.20;47.30
1526;DHT22;756;49.982;8.240;2022-08-25T13:11:31;29.20;47.40
1526;DHT22;756;49.982;8.240;2022-08-25T13:14:13;29.20;47.40
1526;DHT22;756;49.982;8.240;2022-08-25T13:16:54;29.20;47.10
1526;DHT22;756;49.982;8.240;2022-08-25T13:19:22;29.20;47.30
1526;DHT22;756;49.982;8.240;2022-08-25T13:21:51;29.20;47.00
1526;DHT22;756;49.982;8.240;2022-08-25T13:24:33;29.30;46.90
1526;DHT22;756;49.982;8.240;2022-08-25T13:27:09;29.40;46.90
1526;DHT22;756;49.982;8.240;2022-08-25T13:29:52;29.40;46.70
1526;DHT22;756;49.982;8.240;2022-08-25T13:32:29;29.50;46.60
1526;DHT22;756;49.982;8.240;2022-08-25T13:35:19;29.60;46.50
1526;DHT22;756;49.982;8.240;2022-08-25T13:37:46;29.50;46.30
1526;DHT22;756;49.982;8.240;2022-08-25T13:40:28;29.60;46.40
1526;DHT22;756;49.982;8.240;2022-08-25T13:42:59;29.60;46.40
1526;DHT22;756;49.982;8.240;2022-08-25T13:45:31;29.70;46.30
1526;DHT22;756;49.982;8.240;2022-08-25T13:48:12;29.80;46.30
1526;DHT22;756;49.982;8.240;2022-08-25T13:50:51;29.80;46.40
1526;DHT22;756;49.982;8.240;2022-08-25T13:53:24;29.70;46.40
1526;DHT22;756;49.982;8.240;2022-08-25T13:55:53;29.70;46.00
1526;DHT22;756;49.982;8.240;2022-08-25T13:58:34;29.60;46.10
1526;DHT22;756;49.982;8.240;2022-08-25T14:04:24;29.60;46.00
1526;DHT22;756;49.982;8.240;2022-08-25T14:09:55;29.70;46.20
1526;DHT22;756;49.982;8.240;2022-08-25T14:12:27;29.70;46.20
1526;DHT22;756;49.982;8.240;2022-08-25T14:17:25;29.70;45.90
1526;DHT22;756;49.982;8.240;2022-08-25T14:20:24;29.50;45.80
1526;DHT22;756;49.982;8.240;2022-08-25T14:22:57;29.50;45.90
1526;DHT22;756;49.982;8.240;2022-08-25T14:25:28;29.50;45.80
1526;DHT22;756;49.982;8.240;2022-08-25T14:28:01;29.50;45.80
1526;DHT22;756;49.982;8.240;2022-08-25T14:30:35;29.50;45.30
1526;DHT22;756;49.982;8.240;2022-08-25T14:33:03;29.60;45.20
1526;DHT22;756;49.982;8.240;2022-08-25T14:35:32;29.60;45.30
1526;DHT22;756;49.982;8.240;2022-08-25T14:38:09;29.60;45.40
1526;DHT22;756;49.982;8.240;2022-08-25T14:40:37;29.70;44.70
1526;DHT22;756;49.982;8.240;2022-08-25T14:43:05;29.70;44.70
1526;DHT22;756;49.982;8.240;2022-08-25T14:45:37;29.70;44.90
1526;DHT22;756;49.982;8.240;2022-08-25T14:48:08;29.70;44.90
1526;DHT22;756;49.982;8.240;2022-08-25T14:50:37;29.70;45.10
1526;DHT22;756;49.982;8.240;2022-08-25T14:53:09;29.70;44.80
1526;DHT22;756;49.982;8.240;2022-08-25T14:55:35;29.70;44.50
1526;DHT22;756;49.982;8.240;2022-08-25T14:58:03;29.70;44.40
1526;DHT22;756;49.982;8.240;2022-08-25T15:00:36;29.70;44.30
1526;DHT22;756;49.982;8.240;2022-08-25T15:03:06;29.80;44.30
1526;DHT22;756;49.982;8.240;2022-08-25T15:05:33;29.70;44.20
1526;DHT22;756;49.982;8.240;2022-08-25T15:08:00;29.80;44.60
1526;DHT22;756;49.982;8.240;2022-08-25T15:10:46;29.80;44.40
1526;DHT22;756;49.982;8.240;2022-08-25T15:13:13;29.80;44.50
1526;DHT22;756;49.982;8.240;2022-08-25T15:15:42;29.80;44.60
1526;DHT22;756;49.982;8.240;2022-08-25T15:18:19;29.80;44.50
1526;DHT22;756;49.982;8.240;2022-08-25T15:20:47;29.80;44.50
1526;DHT22;756;49.982;8.240;2022-08-25T15:23:16;29.80;44.70
1526;DHT22;756;49.982;8.240;2022-08-25T15:25:45;29.80;44.80
1526;DHT22;756;49.982;8.240;2022-08-25T15:28:13;29.80;44.80
1526;DHT22;756;49.982;8.240;2022-08-25T15:30:43;29.80;44.80
1526;DHT22;756;49.982;8.240;2022-08-25T15:33:11;29.80;45.00
1526;DHT22;756;49.982;8.240;2022-08-25T15:35:39;29.90;45.10
1526;DHT22;756;49.982;8.240;2022-08-25T15:38:06;29.80;45.00
1526;DHT22;756;49.982;8.240;2022-08-25T15:40:34;29.80;45.10
1526;DHT22;756;49.982;8.240;2022-08-25T15:43:04;29.80;44.70
1526;DHT22;756;49.982;8.240;2022-08-25T15:45:32;29.90;44.40
1526;DHT22;756;49.982;8.240;2022-08-25T15:48:01;29.90;44.00
1526;DHT22;756;49.982;8.240;2022-08-25T15:50:29;29.90;43.70
1526;DHT22;756;49.982;8.240;2022-08-25T15:52:55;29.80;43.40
1526;DHT22;756;49.982;8.240;2022-08-25T15:55:23;29.90;43.40
1526;DHT22;756;49.982;8.240;2022-08-25T15:57:50;29.90;43.60
1526;DHT22;756;49.982;8.240;2022-08-25T16:00:18;29.90;43.70
1526;DHT22;756;49.982;8.240;2022-08-25T16:02:47;30.00;43.90
1526;DHT22;756;49.982;8.240;2022-08-25T16:05:13;30.00;43.80
1526;DHT22;756;49.982;8.240;2022-08-25T16:07:42;30.00;43.70
1526;DHT22;756;49.982;8.240;2022-08-25T16:10:12;30.10;43.70
1526;DHT22;756;49.982;8.240;2022-08-25T16:12:39;30.10;43.70
1526;DHT22;756;49.982;8.240;2022-08-25T16:15:08;30.00;43.90
1526;DHT22;756;49.982;8.240;2022-08-25T16:17:38;30.00;43.80
1526;DHT22;756;49.982;8.240;2022-08-25T16:20:10;30.00;43.80
1526;DHT22;756;49.982;8.240;2022-08-25T16:22:39;30.00;43.80
1526;DHT22;756;49.982;8.240;2022-08-25T16:25:06;30.00;43.80
1526;DHT22;756;49.982;8.240;2022-08-25T16:27:33;30.00;44.30
1526;DHT22;756;49.982;8.240;2022-08-25T16:30:09;30.00;44.40
1526;DHT22;756;49.982;8.240;2022-08-25T16:32:43;30.00;44.40
1526;DHT22;756;49.982;8.240;2022-08-25T16:35:10;30.00;44.00
1526;DHT22;756;49.982;8.240;2022-08-25T16:37:36;30.00;44.30
1526;DHT22;756;49.982;8.240;2022-08-25T16:40:06;30.00;44.40
1526;DHT22;756;49.982;8.240;2022-08-25T16:42:33;29.90;44.30
1526;DHT22;756;49.982;8.240;2022-08-25T16:45:00;29.90;44.40
1526;DHT22;756;49.982;8.240;2022-08-25T16:47:30;29.90;44.40
1526;DHT22;756;49.982;8.240;2022-08-25T16:50:05;29.90;44.20
1526;DHT22;756;49.982;8.240;2022-08-25T16:52:32;29.90;44.10
1526;DHT22;756;49.982;8.240;2022-08-25T16:55:19;29.90;44.70
1526;DHT22;756;49.982;8.240;2022-08-25T16:57:50;29.90;44.90
1526;DHT22;756;49.982;8.240;2022-08-25T17:00:28;29.80;44.60
1526;DHT22;756;49.982;8.240;2022-08-25T17:02:57;29.80;44.60
1526;DHT22;756;49.982;8.240;2022-08-25T17:05:26;29.80;44.30
1526;DHT22;756;49.982;8.240;2022-08-25T17:07:55;29.80;44.20
1526;DHT22;756;49.982;8.240;2022-08-25T17:10:42;29.80;44.00
1526;DHT22;756;49.982;8.240;2022-08-25T17:13:10;29.80;44.10
1526;DHT22;756;49.982;8.240;2022-08-25T17:15:44;29.80;44.20
1526;DHT22;756;49.982;8.240;2022-08-25T17:18:12;29.80;44.30
1526;DHT22;756;49.982;8.240;2022-08-25T17:20:40;29.80;44.30
1526;DHT22;756;49.982;8.240;2022-08-25T17:23:08;29.80;44.60
1526;DHT22;756;49.982;8.240;2022-08-25T17:25:39;29.70;44.90
1526;DHT22;756;49.982;8.240;2022-08-25T17:28:08;29.70;45.10
1526;DHT22;756;49.982;8.240;2022-08-25T17:30:39;29.70;45.00
1526;DHT22;756;49.982;8.240;2022-08-25T17:33:05;29.60;45.30
1526;DHT22;756;49.982;8.240;2022-08-25T17:35:38;29.60;45.60
1526;DHT22;756;49.982;8.240;2022-08-25T17:38:05;29.60;45.30
1526;DHT22;756;49.982;8.240;2022-08-25T17:40:34;29.60;45.20
1526;DHT22;756;49.982;8.240;2022-08-25T17:43:01;29.60;45.30
1526;DHT22;756;49.982;8.240;2022-08-25T17:45:28;29.60;45.30
1526;DHT22;756;49.982;8.240;2022-08-25T17:47:56;29.60;45.40
1526;DHT22;756;49.982;8.240;2022-08-25T17:50:24;29.60;45.50
1526;DHT22;756;49.982;8.240;2022-08-25T17:52:51;29.60;45.50
1526;DHT22;756;49.982;8.240;2022-08-25T17:55:19;29.50;45.60
1526;DHT22;756;49.982;8.240;2022-08-25T17:57:50;29.50;45.60
1526;DHT22;756;49.982;8.240;2022-08-25T18:00:19;29.50;45.80
1526;DHT22;756;49.982;8.240;2022-08-25T18:02:47;29.40;45.60
1526;DHT22;756;49.982;8.240;2022-08-25T18:05:14;29.40;45.60
1526;DHT22;756;49.982;8.240;2022-08-25T18:07:42;29.40;45.90
1526;DHT22;756;49.982;8.240;2022-08-25T18:10:09;29.40;45.90
1526;DHT22;756;49.982;8.240;2022-08-25T18:12:37;29.30;46.20
1526;DHT22;756;49.982;8.240;2022-08-25T18:15:05;29.30;46.40
1526;DHT22;756;49.982;8.240;2022-08-25T18:17:34;29.20;47.00
1526;DHT22;756;49.982;8.240;2022-08-25T18:20:03;29.20;47.70
1526;DHT22;756;49.982;8.240;2022-08-25T18:22:31;29.10;47.80
1526;DHT22;756;49.982;8.240;2022-08-25T18:24:58;29.10;47.90
1526;DHT22;756;49.982;8.240;2022-08-25T18:27:26;29.00;47.80
1526;DHT22;756;49.982;8.240;2022-08-25T18:29:54;29.00;47.70
1526;DHT22;756;49.982;8.240;2022-08-25T18:32:22;28.90;47.80
1526;DHT22;756;49.982;8.240;2022-08-25T18:34:52;28.80;47.80
1526;DHT22;756;49.982;8.240;2022-08-25T18:37:19;28.80;47.80